createdAt,value
2018-10-19T00:02:08.481Z,5.90
2018-10-19T00:04:36.079Z,9.53
2018-10-19T00:07:03.924Z,6.50
2018-10-19T00:09:31.409Z,3.53
2018-10-19T00:11:58.968Z,5.57
2018-10-19T00:14:26.532Z,5.30
2018-10-19T00:16:54.039Z,8.20
2018-10-19T00:19:21.737Z,7.60
2018-10-19T00:21:49.527Z,9.00
2018-10-19T00:24:17.006Z,5.27
2018-10-19T00:26:44.683Z,6.00
2018-10-19T00:29:12.200Z,6.17
2018-10-19T00:31:39.754Z,7.60
2018-10-19T00:34:07.709Z,11.37
2018-10-19T00:36:36.095Z,9.00
2018-10-19T00:39:05.320Z,9.47
2018-10-19T00:41:32.752Z,8.00
2018-10-19T00:44:00.354Z,7.23
2018-10-19T00:46:28.257Z,7.93
2018-10-19T00:48:55.939Z,8.57
2018-10-19T00:51:23.499Z,11.17
2018-10-19T00:53:50.943Z,10.60
2018-10-19T00:56:18.487Z,10.20
2018-10-19T00:58:46.036Z,5.90
2018-10-19T01:01:13.533Z,6.10
2018-10-19T01:03:40.999Z,5.33
2018-10-19T01:06:08.558Z,7.80
2018-10-19T01:08:36.167Z,5.57
2018-10-19T01:11:03.939Z,12.37
2018-10-19T01:13:31.485Z,7.17
2018-10-19T01:15:58.992Z,6.13
2018-10-19T01:18:26.448Z,8.87
2018-10-19T01:20:54.061Z,9.90
2018-10-19T01:23:21.529Z,9.40
2018-10-19T01:25:48.968Z,6.43
2018-10-19T01:28:16.620Z,7.70
2018-10-19T01:30:44.158Z,7.20
2018-10-19T01:33:12.123Z,7.43
2018-10-19T01:35:39.555Z,8.50
2018-10-19T01:38:06.986Z,7.50
2018-10-19T01:40:34.558Z,7.00
2018-10-19T01:43:02.011Z,7.87
2018-10-19T01:45:29.547Z,13.50
2018-10-19T01:47:57.354Z,10.30
2018-10-19T01:50:24.922Z,6.83
2018-10-19T01:52:52.567Z,6.30
2018-10-19T01:55:20.031Z,9.43
2018-10-19T01:57:47.583Z,6.87
2018-10-19T02:00:15.036Z,8.33
2018-10-19T02:02:42.435Z,7.40
2018-10-19T02:05:10.103Z,4.33
2018-10-19T02:07:37.546Z,6.13
2018-10-19T02:10:05.555Z,6.10
2018-10-19T02:12:32.979Z,8.13
2018-10-19T02:15:00.486Z,4.30
2018-10-19T02:17:27.953Z,4.33
2018-10-19T02:19:55.415Z,5.73
2018-10-19T02:22:22.880Z,6.00
2018-10-19T02:24:50.415Z,3.80
2018-10-19T02:27:17.881Z,9.23
2018-10-19T02:29:45.315Z,10.20
2018-10-19T02:32:12.777Z,10.27
2018-10-19T02:34:40.308Z,9.50
2018-10-19T02:37:08.006Z,7.93
2018-10-19T02:39:35.500Z,5.40
2018-10-19T02:42:03.045Z,6.73
2018-10-19T02:44:30.564Z,5.90
2018-10-19T02:46:58.062Z,10.10
2018-10-19T02:49:25.534Z,5.40
2018-10-19T02:51:53.055Z,3.77
2018-10-19T02:54:20.629Z,5.00
2018-10-19T02:56:48.110Z,7.40
2018-10-19T02:59:15.675Z,5.00
2018-10-19T03:01:43.123Z,6.47
2018-10-19T03:04:10.612Z,6.73
2018-10-19T03:06:38.079Z,5.43
2018-10-19T03:09:08.381Z,7.80
2018-10-19T03:11:35.976Z,5.30
2018-10-19T03:14:03.700Z,4.20
2018-10-19T03:16:31.276Z,6.07
2018-10-19T03:18:58.755Z,8.70
2018-10-19T03:21:26.266Z,3.60
2018-10-19T03:23:53.858Z,4.87
2018-10-19T03:26:21.287Z,5.70
2018-10-19T03:28:48.795Z,6.33
2018-10-19T03:31:16.325Z,4.90
2018-10-19T03:33:43.769Z,7.50
2018-10-19T03:36:11.217Z,10.43
2018-10-19T03:38:38.696Z,4.90
2018-10-19T03:41:06.407Z,8.00
2018-10-19T03:43:34.913Z,5.30
2018-10-19T03:46:02.551Z,5.60
2018-10-19T03:48:30.031Z,10.47
2018-10-19T03:50:57.544Z,5.47
2018-10-19T03:53:25.003Z,5.13
2018-10-19T03:55:52.508Z,6.87
2018-10-19T03:58:20.060Z,10.83
2018-10-19T04:00:47.508Z,5.27
2018-10-19T04:03:15.138Z,7.90
2018-10-19T04:05:42.557Z,7.50
2018-10-19T04:08:10.075Z,11.33
2018-10-19T04:10:37.583Z,7.73
2018-10-19T04:13:05.286Z,9.67
2018-10-19T04:15:32.790Z,11.57
2018-10-19T04:18:00.255Z,7.87
2018-10-19T04:20:27.786Z,11.13
2018-10-19T04:23:10.385Z,8.00
2018-10-19T04:25:38.772Z,16.03
2018-10-19T04:28:06.274Z,6.53
2018-10-19T04:30:35.014Z,13.23
2018-10-19T04:33:02.908Z,7.87
2018-10-19T04:35:30.660Z,12.00
2018-10-19T04:37:58.082Z,16.33
2018-10-19T04:40:25.519Z,12.60
2018-10-19T04:42:53.033Z,11.90
2018-10-19T04:45:20.500Z,13.33
2018-10-19T04:47:48.025Z,15.20
2018-10-19T04:50:15.565Z,15.97
2018-10-19T04:52:43.000Z,19.07
2018-10-19T04:55:14.282Z,19.10
2018-10-19T04:57:41.744Z,12.13
2018-10-19T05:00:09.240Z,11.20
2018-10-19T05:02:36.804Z,12.93
2018-10-19T05:05:09.601Z,8.97
2018-10-19T05:07:37.477Z,8.37
2018-10-19T05:10:06.071Z,12.43
2018-10-19T05:12:33.675Z,13.13
2018-10-19T05:15:01.051Z,12.00
2018-10-19T05:17:29.017Z,10.60
2018-10-19T05:19:56.507Z,10.83
2018-10-19T05:22:24.361Z,10.03
2018-10-19T05:24:51.944Z,11.27
2018-10-19T05:27:19.382Z,8.67
2018-10-19T05:29:47.062Z,8.00
2018-10-19T05:32:14.734Z,7.83
2018-10-19T05:34:42.700Z,7.63
2018-10-19T05:37:10.123Z,16.57
2018-10-19T05:39:37.597Z,7.90
2018-10-19T05:42:05.447Z,12.50
2018-10-19T05:44:33.431Z,9.93
2018-10-19T05:47:00.923Z,12.73
2018-10-19T05:49:28.551Z,11.13
2018-10-19T05:54:59.132Z,8.83
2018-10-19T05:57:26.719Z,10.80
2018-10-19T05:59:54.342Z,9.53
2018-10-19T06:02:22.808Z,14.20
2018-10-19T06:04:50.156Z,7.37
2018-10-19T06:07:17.842Z,9.60
2018-10-19T06:09:45.331Z,10.43
2018-10-19T06:12:12.804Z,8.07
2018-10-19T06:14:40.364Z,8.43
2018-10-19T06:17:07.891Z,9.97
2018-10-19T06:19:39.105Z,8.13
2018-10-19T06:22:06.749Z,8.37
2018-10-19T06:24:34.438Z,7.83
2018-10-19T06:27:01.983Z,8.40
2018-10-19T06:29:29.636Z,8.03
2018-10-19T06:31:57.173Z,12.00
2018-10-19T06:34:24.644Z,11.00
2018-10-19T06:36:52.075Z,12.23
2018-10-19T06:39:19.573Z,13.13
2018-10-19T06:41:47.111Z,12.77
2018-10-19T06:44:14.643Z,10.63
2018-10-19T06:46:42.336Z,11.33
2018-10-19T06:49:09.882Z,9.50
2018-10-19T06:51:37.278Z,12.40
2018-10-19T06:54:05.016Z,11.03
2018-10-19T06:56:32.487Z,15.77
2018-10-19T06:59:00.179Z,9.40
2018-10-19T07:01:27.499Z,12.13
2018-10-19T07:03:55.060Z,12.07
2018-10-19T07:06:22.518Z,12.00
2018-10-19T07:08:49.975Z,15.77
2018-10-19T07:11:17.432Z,10.80
2018-10-19T07:13:44.873Z,13.00
2018-10-19T07:16:12.501Z,13.40
2018-10-19T07:18:39.955Z,16.77
2018-10-19T07:21:07.479Z,14.47
2018-10-19T07:23:34.896Z,15.23
2018-10-19T07:26:02.485Z,18.30
2018-10-19T07:28:30.222Z,15.57
2018-10-19T07:30:57.824Z,16.20
2018-10-19T07:33:25.349Z,14.57
2018-10-19T07:35:52.836Z,26.03
2018-10-19T07:38:20.320Z,25.57
2018-10-19T07:40:47.802Z,14.83
2018-10-19T07:43:15.324Z,13.17
2018-10-19T07:45:42.790Z,15.90
2018-10-19T07:48:10.427Z,14.53
2018-10-19T07:50:37.720Z,19.17
2018-10-19T07:53:05.454Z,19.90
2018-10-19T07:55:33.061Z,26.93
2018-10-19T07:58:00.544Z,26.57
2018-10-19T08:00:28.101Z,24.87
2018-10-19T08:02:55.631Z,24.33
2018-10-19T08:05:23.090Z,17.70
2018-10-19T08:07:50.565Z,18.67
2018-10-19T08:10:18.089Z,27.03
2018-10-19T08:12:46.304Z,22.30
2018-10-19T08:15:13.756Z,23.13
2018-10-19T08:17:41.352Z,22.73
2018-10-19T08:20:09.635Z,21.07
2018-10-19T08:22:37.007Z,28.70
2018-10-19T08:25:05.014Z,24.27
2018-10-19T08:27:32.575Z,18.10
2018-10-19T08:30:00.043Z,24.63
2018-10-19T08:32:27.550Z,24.90
2018-10-19T08:34:55.257Z,18.60
2018-10-19T08:37:22.792Z,21.10
2018-10-19T08:39:50.203Z,21.63
2018-10-19T08:42:17.642Z,23.33
2018-10-19T08:44:45.082Z,20.30
2018-10-19T08:47:12.580Z,21.97
2018-10-19T08:49:40.001Z,19.70
2018-10-19T08:52:07.434Z,24.37
2018-10-19T08:54:34.952Z,23.03
2018-10-19T08:57:02.614Z,13.20
2018-10-19T08:59:30.011Z,18.57
2018-10-19T09:01:57.443Z,17.87
2018-10-19T09:04:24.984Z,26.27
2018-10-19T09:06:52.527Z,19.97
2018-10-19T09:09:20.057Z,19.87
2018-10-19T09:11:47.631Z,15.60
2018-10-19T09:14:53.458Z,22.03
2018-10-19T09:17:21.043Z,20.80
2018-10-19T09:19:48.935Z,17.37
2018-10-19T09:22:16.717Z,16.27
2018-10-19T09:24:44.243Z,19.50
2018-10-19T09:27:11.794Z,23.70
2018-10-19T09:29:39.404Z,21.10
2018-10-19T09:32:06.821Z,19.57
2018-10-19T09:34:34.613Z,27.67
2018-10-19T09:37:02.237Z,19.50
2018-10-19T09:39:29.644Z,15.77
2018-10-19T09:41:57.125Z,23.83
2018-10-19T09:44:24.645Z,24.27
2018-10-19T09:46:52.322Z,17.50
2018-10-19T09:49:19.824Z,23.73
2018-10-19T09:51:47.353Z,20.37
2018-10-19T09:54:14.939Z,14.77
2018-10-19T09:56:42.487Z,15.80
2018-10-19T09:59:10.133Z,17.97
2018-10-19T10:01:38.394Z,16.17
2018-10-19T10:04:06.135Z,16.33
2018-10-19T10:06:33.594Z,22.63
2018-10-19T10:09:01.230Z,15.37
2018-10-19T10:11:28.658Z,17.93
2018-10-19T10:13:56.426Z,16.73
2018-10-19T10:16:23.936Z,16.00
2018-10-19T10:18:51.384Z,18.90
2018-10-19T10:21:18.896Z,16.10
2018-10-19T10:23:46.380Z,18.13
2018-10-19T10:26:14.485Z,12.90
2018-10-19T10:28:42.014Z,10.37
2018-10-19T10:31:09.591Z,14.07
2018-10-19T10:33:36.990Z,13.60
2018-10-19T10:36:04.627Z,10.97
2018-10-19T10:38:32.235Z,13.97
2018-10-19T10:40:59.756Z,10.03
2018-10-19T10:43:27.228Z,8.47
2018-10-19T10:45:54.786Z,9.00
2018-10-19T10:48:22.306Z,12.53
2018-10-19T10:50:49.822Z,8.90
2018-10-19T10:53:17.556Z,12.00
2018-10-19T10:55:45.139Z,7.57
2018-10-19T10:58:12.805Z,10.50
2018-10-19T11:00:40.280Z,10.17
2018-10-19T11:03:07.794Z,11.23
2018-10-19T11:05:35.249Z,6.47
2018-10-19T11:08:02.817Z,6.57
2018-10-19T11:10:30.317Z,8.77
2018-10-19T11:12:57.902Z,10.63
2018-10-19T11:15:25.340Z,9.77
2018-10-19T11:17:53.021Z,11.80
2018-10-19T11:20:20.463Z,10.33
2018-10-19T11:22:48.243Z,10.80
2018-10-19T11:25:15.748Z,11.60
2018-10-19T11:27:43.283Z,9.93
2018-10-19T11:30:10.778Z,13.07
2018-10-19T11:32:38.218Z,9.67
2018-10-19T11:35:06.421Z,9.20
2018-10-19T11:37:33.927Z,11.00
2018-10-19T11:40:12.842Z,7.07
2018-10-19T11:42:40.504Z,8.60
2018-10-19T11:45:08.192Z,9.53
2018-10-19T11:47:35.735Z,9.53
2018-10-19T11:50:04.077Z,7.70
2018-10-19T11:52:31.653Z,9.23
2018-10-19T11:54:59.241Z,8.33
2018-10-19T11:57:26.737Z,11.87
2018-10-19T11:59:54.280Z,21.13
2018-10-19T12:02:23.472Z,10.43
2018-10-19T12:04:51.379Z,14.40
2018-10-19T12:07:18.877Z,10.70
2018-10-19T12:09:46.356Z,14.00
2018-10-19T12:12:13.940Z,10.83
2018-10-19T12:14:41.551Z,13.37
2018-10-19T12:17:09.090Z,13.43
2018-10-19T12:19:36.705Z,11.60
2018-10-19T12:22:04.542Z,12.10
2018-10-19T12:24:32.080Z,13.20
2018-10-19T12:26:59.710Z,13.60
2018-10-19T12:29:27.616Z,11.73
2018-10-19T12:31:56.131Z,12.60
2018-10-19T12:34:23.648Z,14.00
2018-10-19T12:36:51.224Z,12.30
2018-10-19T12:39:18.757Z,10.40
2018-10-19T12:41:46.192Z,11.83
2018-10-19T12:44:13.832Z,12.63
2018-10-19T12:46:52.683Z,12.53
2018-10-19T12:49:21.555Z,15.13
2018-10-19T12:51:49.178Z,12.03
2018-10-19T12:54:17.074Z,11.43
2018-10-19T12:56:44.697Z,10.80
2018-10-19T12:59:12.208Z,11.00
2018-10-19T13:01:40.108Z,13.33
2018-10-19T13:04:07.764Z,21.80
2018-10-19T13:06:35.294Z,13.77
2018-10-19T13:09:05.191Z,18.40
2018-10-19T13:11:32.740Z,13.00
2018-10-19T13:14:00.261Z,14.63
2018-10-19T13:16:27.830Z,16.80
2018-10-19T13:18:55.413Z,17.93
2018-10-19T13:21:22.856Z,18.00
2018-10-19T13:23:50.443Z,19.40
2018-10-19T13:26:18.017Z,15.20
2018-10-19T13:28:45.496Z,17.17
2018-10-19T13:31:12.947Z,13.97
2018-10-19T13:33:40.375Z,12.57
2018-10-19T13:36:07.811Z,12.30
2018-10-19T13:38:35.331Z,11.70
2018-10-19T13:41:02.892Z,13.33
2018-10-19T13:46:33.883Z,14.70
2018-10-19T13:49:01.383Z,11.80
2018-10-19T13:51:29.180Z,13.20
2018-10-19T13:53:56.613Z,14.60
2018-10-19T13:56:24.306Z,16.60
2018-10-19T13:58:51.811Z,14.93
2018-10-19T14:01:19.318Z,14.80
2018-10-19T14:03:46.951Z,11.00
2018-10-19T14:06:14.623Z,15.70
2018-10-19T14:08:42.131Z,12.77
2018-10-19T14:11:09.751Z,12.63
2018-10-19T14:13:37.256Z,11.50
2018-10-19T14:16:04.836Z,13.80
2018-10-19T14:18:32.380Z,11.23
2018-10-19T14:21:00.166Z,9.23
2018-10-19T14:23:27.953Z,13.33
2018-10-19T14:25:55.616Z,8.90
2018-10-19T14:28:23.232Z,10.37
2018-10-19T14:30:50.736Z,11.00
2018-10-19T14:33:18.670Z,11.30
2018-10-19T14:35:46.129Z,10.67
2018-10-19T14:38:13.547Z,11.20
2018-10-19T14:40:41.244Z,10.53
2018-10-19T14:43:08.751Z,9.27
2018-10-19T14:45:36.332Z,10.27
2018-10-19T14:48:04.339Z,16.90
2018-10-19T14:50:31.962Z,8.37
2018-10-19T14:52:59.600Z,11.90
2018-10-19T14:55:27.095Z,7.27
2018-10-19T14:57:54.671Z,9.17
2018-10-19T15:00:22.308Z,8.97
2018-10-19T15:02:49.898Z,6.67
2018-10-19T15:05:18.568Z,9.50
2018-10-19T15:07:46.232Z,8.43
2018-10-19T15:10:16.516Z,9.30
2018-10-19T15:12:44.150Z,5.77
2018-10-19T15:15:16.720Z,8.60
2018-10-19T15:17:44.628Z,15.17
2018-10-19T15:20:12.616Z,8.27
2018-10-19T15:22:40.206Z,7.37
2018-10-19T15:25:08.246Z,9.13
2018-10-19T15:27:36.051Z,9.57
2018-10-19T15:30:03.678Z,8.17
2018-10-19T15:32:31.208Z,10.90
2018-10-19T15:34:58.764Z,10.10
2018-10-19T15:37:26.647Z,10.90
2018-10-19T15:39:54.247Z,8.30
2018-10-19T15:42:21.829Z,8.27
2018-10-19T15:44:49.510Z,7.13
2018-10-19T15:47:17.144Z,10.27
2018-10-19T15:49:44.554Z,12.40
2018-10-19T15:52:12.218Z,8.37
2018-10-19T15:54:39.748Z,10.23
2018-10-19T15:57:07.296Z,8.93
2018-10-19T15:59:34.768Z,12.73
2018-10-19T16:02:02.271Z,9.67
2018-10-19T16:04:29.913Z,11.13
2018-10-19T16:06:57.366Z,11.03
2018-10-19T16:09:24.816Z,8.30
2018-10-19T16:11:52.263Z,11.37
2018-10-19T16:14:19.754Z,9.50
2018-10-19T16:16:47.340Z,9.97
2018-10-19T16:19:14.795Z,12.13
2018-10-19T16:21:42.251Z,13.77
2018-10-19T16:24:10.039Z,7.60
2018-10-19T16:26:37.496Z,10.20
2018-10-19T16:29:05.147Z,15.73
2018-10-19T16:31:32.797Z,10.63
2018-10-19T16:34:00.359Z,11.90
2018-10-19T16:36:27.902Z,9.53
2018-10-19T16:38:55.491Z,9.10
2018-10-19T16:41:23.045Z,10.60
2018-10-19T16:43:50.481Z,9.67
2018-10-19T16:46:18.029Z,14.13
2018-10-19T16:48:45.539Z,11.43
2018-10-19T16:51:13.021Z,12.43
2018-10-19T16:53:40.834Z,12.43
2018-10-19T16:56:08.418Z,17.47
2018-10-19T16:58:35.912Z,16.73
2018-10-19T17:01:03.679Z,15.47
2018-10-19T17:03:31.285Z,15.13
2018-10-19T17:05:58.774Z,15.53
2018-10-19T17:08:26.342Z,12.27
2018-10-19T17:10:53.859Z,12.60
2018-10-19T17:13:21.309Z,10.60
2018-10-19T17:15:48.961Z,10.17
2018-10-19T17:18:16.568Z,9.77
2018-10-19T17:20:44.039Z,11.40
2018-10-19T17:23:11.512Z,11.60
2018-10-19T17:25:38.975Z,12.03
2018-10-19T17:28:06.483Z,14.40
2018-10-19T17:30:33.980Z,12.50
2018-10-19T17:33:01.476Z,9.93
2018-10-19T17:35:28.948Z,12.80
2018-10-19T17:37:56.363Z,13.60
2018-10-19T17:40:23.864Z,21.70
2018-10-19T17:42:51.427Z,20.40
2018-10-19T17:45:18.923Z,17.57
2018-10-19T17:47:46.390Z,22.93
2018-10-19T17:50:13.981Z,18.07
2018-10-19T17:52:41.725Z,11.50
2018-10-19T17:55:10.236Z,14.83
2018-10-19T17:57:38.485Z,18.10
2018-10-19T18:00:07.366Z,14.53
2018-10-19T18:02:34.816Z,9.50
2018-10-19T18:05:02.475Z,10.23
2018-10-19T18:07:30.803Z,12.17
2018-10-19T18:09:58.285Z,11.33
2018-10-19T18:12:25.839Z,13.27
2018-10-19T18:14:53.369Z,9.93
2018-10-19T18:17:20.774Z,11.97
2018-10-19T18:19:48.272Z,11.43
2018-10-19T18:22:16.239Z,12.03
2018-10-19T18:24:43.658Z,11.13
2018-10-19T18:27:11.258Z,11.57
2018-10-19T18:29:38.646Z,13.53
2018-10-19T18:32:06.262Z,16.70
2018-10-19T18:34:33.916Z,14.30
2018-10-19T18:37:01.682Z,18.50
2018-10-19T18:39:29.663Z,14.13
2018-10-19T18:41:57.538Z,15.60
2018-10-19T18:44:25.874Z,20.70
2018-10-19T18:46:54.029Z,14.57
2018-10-19T18:49:22.437Z,19.97
2018-10-19T18:51:51.484Z,13.27
2018-10-19T18:54:20.326Z,15.67
2018-10-19T18:56:49.681Z,12.03
2018-10-19T18:59:18.852Z,16.03
2018-10-19T19:01:48.538Z,13.97
2018-10-19T19:04:17.532Z,14.10
2018-10-19T19:06:46.763Z,17.47
2018-10-19T19:09:16.094Z,15.73
2018-10-19T19:11:45.268Z,14.37
2018-10-19T19:14:14.626Z,15.87
2018-10-19T19:16:44.140Z,14.27
2018-10-19T19:19:13.264Z,13.90
2018-10-19T19:21:42.232Z,15.03
2018-10-19T19:24:16.660Z,12.83
2018-10-19T19:26:45.667Z,15.10
2018-10-19T19:29:14.865Z,17.30
2018-10-19T19:31:43.413Z,19.00
2018-10-19T19:34:20.701Z,15.43
2018-10-19T19:36:49.705Z,13.97
2018-10-19T19:39:18.282Z,14.73
2018-10-19T19:41:52.013Z,13.50
2018-10-19T19:44:20.163Z,19.00
2018-10-19T19:46:47.994Z,14.00
2018-10-19T19:49:21.825Z,16.50
2018-10-19T19:51:49.639Z,16.70
2018-10-19T19:54:18.030Z,14.47
2018-10-19T19:56:45.701Z,15.33
2018-10-19T19:59:13.284Z,14.43
2018-10-19T20:01:40.796Z,15.27
2018-10-19T20:04:08.349Z,17.40
2018-10-19T20:06:36.262Z,13.63
2018-10-19T20:09:05.074Z,19.00
2018-10-19T20:11:32.612Z,16.07
2018-10-19T20:14:00.063Z,13.73
2018-10-19T20:16:27.559Z,14.60
2018-10-19T20:18:55.078Z,18.90
2018-10-19T20:21:22.663Z,15.83
2018-10-19T20:23:50.097Z,15.33
2018-10-19T20:26:17.687Z,19.97
2018-10-19T20:28:45.191Z,20.07
2018-10-19T20:31:12.668Z,20.33
2018-10-19T20:33:40.142Z,28.87
2018-10-19T20:36:07.605Z,29.17
2018-10-19T20:38:35.041Z,28.13
2018-10-19T20:41:02.576Z,21.90
2018-10-19T20:43:30.059Z,26.00
2018-10-19T20:45:57.571Z,22.90
2018-10-19T20:48:25.140Z,26.40
2018-10-19T20:50:52.636Z,22.93
2018-10-19T20:53:20.215Z,20.90
2018-10-19T20:55:47.773Z,27.77
2018-10-19T20:58:15.204Z,21.47
2018-10-19T21:00:43.001Z,19.27
2018-10-19T21:03:10.516Z,18.10
2018-10-19T21:05:38.027Z,16.10
2018-10-19T21:08:05.689Z,17.00
2018-10-19T21:10:33.123Z,15.43
2018-10-19T21:13:00.633Z,14.03
2018-10-19T21:15:28.131Z,16.90
2018-10-19T21:17:55.561Z,14.03
2018-10-19T21:20:23.148Z,14.33
2018-10-19T21:22:50.555Z,15.03
2018-10-19T21:25:18.041Z,14.23
2018-10-19T21:27:45.528Z,18.47
2018-10-19T21:30:13.314Z,16.57
2018-10-19T21:32:40.963Z,16.83
2018-10-19T21:35:08.599Z,16.33
2018-10-19T21:37:36.090Z,16.47
2018-10-19T21:40:03.709Z,17.40
2018-10-19T21:42:31.265Z,20.37
2018-10-19T21:44:58.699Z,19.33
2018-10-19T21:47:26.436Z,11.97
2018-10-19T21:49:53.937Z,14.93
2018-10-19T21:52:21.399Z,18.10
2018-10-19T21:54:49.069Z,14.13
2018-10-19T21:57:16.517Z,16.30
2018-10-19T21:59:43.958Z,15.23
2018-10-19T22:02:11.626Z,16.40
2018-10-19T22:04:39.014Z,16.20
2018-10-19T22:07:06.498Z,14.40
2018-10-19T22:09:33.910Z,22.10
2018-10-19T22:12:01.388Z,23.67
2018-10-19T22:14:28.934Z,17.77
2018-10-19T22:16:56.392Z,21.57
2018-10-19T22:19:23.861Z,17.63
2018-10-19T22:21:51.298Z,15.23
2018-10-19T22:24:18.791Z,17.47
2018-10-19T22:26:46.296Z,20.60
2018-10-19T22:29:13.809Z,15.57
2018-10-19T22:31:41.393Z,15.53
2018-10-19T22:34:08.807Z,15.47
2018-10-19T22:36:36.270Z,15.67
2018-10-19T22:39:05.281Z,14.47
2018-10-19T22:41:32.736Z,17.20
2018-10-19T22:44:00.189Z,15.00
2018-10-19T22:46:27.731Z,17.40
2018-10-19T22:48:55.321Z,15.50
2018-10-19T22:51:22.778Z,18.53
2018-10-19T22:53:50.268Z,17.67
2018-10-19T22:56:17.758Z,19.23
2018-10-19T22:58:45.245Z,17.83
2018-10-19T23:01:12.922Z,20.90
2018-10-19T23:03:40.358Z,14.40
2018-10-19T23:06:08.544Z,14.63
2018-10-19T23:08:36.114Z,15.83
2018-10-19T23:11:03.748Z,21.60
2018-10-19T23:13:31.229Z,19.00
2018-10-19T23:15:58.976Z,16.10
2018-10-19T23:18:26.458Z,17.83
2018-10-19T23:20:53.944Z,20.87
2018-10-19T23:23:21.412Z,19.00
2018-10-19T23:25:49.027Z,20.60
2018-10-19T23:28:16.443Z,16.47
2018-10-19T23:30:43.985Z,18.50
2018-10-19T23:33:11.386Z,15.60
2018-10-19T23:35:38.799Z,18.00
2018-10-19T23:38:06.211Z,19.47
2018-10-19T23:40:33.627Z,20.83
2018-10-19T23:43:01.139Z,17.60
2018-10-19T23:45:28.571Z,17.00
2018-10-19T23:47:56.039Z,18.00
2018-10-19T23:50:23.489Z,15.83
2018-10-19T23:52:51.101Z,18.27
2018-10-19T23:55:18.505Z,17.60
2018-10-19T23:57:46.019Z,21.23
